sensor_id;sensor_type;location;lat;lon;timestamp;P1;durP1;ratioP1;P2;durP2;ratioP2
53269;SDS011;39159;45.634;9.420;2024-03-06T00:01:50;8.25;;;3.50;;
53269;SDS011;39159;45.634;9.420;2024-03-06T00:04:15;5.05;;;3.13;;
53269;SDS011;39159;45.634;9.420;2024-03-06T00:06:41;5.40;;;4.18;;
53269;SDS011;39159;45.634;9.420;2024-03-06T00:09:06;7.07;;;3.90;;
53269;SDS011;39159;45.634;9.420;2024-03-06T00:11:33;8.30;;;4.30;;
53269;SDS011;39159;45.634;9.420;2024-03-06T00:14:00;8.55;;;4.53;;
53269;SDS011;39159;45.634;9.420;2024-03-06T00:16:27;8.32;;;5.15;;
53269;SDS011;39159;45.634;9.420;2024-03-06T00:18:52;7.25;;;4.80;;
53269;SDS011;39159;45.634;9.420;2024-03-06T00:21:18;7.22;;;4.47;;
53269;SDS011;39159;45.634;9.420;2024-03-06T00:23:43;5.68;;;4.07;;
53269;SDS011;39159;45.634;9.420;2024-03-06T00:26:11;6.22;;;3.60;;
53269;SDS011;39159;45.634;9.420;2024-03-06T00:28:37;6.18;;;3.70;;
53269;SDS011;39159;45.634;9.420;2024-03-06T00:31:04;6.40;;;3.42;;
53269;SDS011;39159;45.634;9.420;2024-03-06T00:33:30;7.05;;;4.18;;
53269;SDS011;39159;45.634;9.420;2024-03-06T00:35:55;5.90;;;3.83;;
53269;SDS011;39159;45.634;9.420;2024-03-06T00:38:21;6.63;;;3.38;;
53269;SDS011;39159;45.634;9.420;2024-03-06T00:40:46;7.85;;;3.88;;
53269;SDS011;39159;45.634;9.420;2024-03-06T00:43:11;5.68;;;4.00;;
53269;SDS011;39159;45.634;9.420;2024-03-06T00:45:37;6.35;;;3.70;;
53269;SDS011;39159;45.634;9.420;2024-03-06T00:48:03;5.32;;;3.75;;
53269;SDS011;39159;45.634;9.420;2024-03-06T00:50:28;7.43;;;4.05;;
53269;SDS011;39159;45.634;9.420;2024-03-06T00:52:54;5.93;;;4.03;;
53269;SDS011;39159;45.634;9.420;2024-03-06T00:55:19;11.60;;;4.30;;
53269;SDS011;39159;45.634;9.420;2024-03-06T00:57:44;6.25;;;3.80;;
53269;SDS011;39159;45.634;9.420;2024-03-06T01:00:10;5.97;;;3.55;;
53269;SDS011;39159;45.634;9.420;2024-03-06T01:02:36;5.18;;;3.78;;
53269;SDS011;39159;45.634;9.420;2024-03-06T01:05:02;6.28;;;4.10;;
53269;SDS011;39159;45.634;9.420;2024-03-06T01:07:28;7.97;;;4.25;;
53269;SDS011;39159;45.634;9.420;2024-03-06T01:09:55;5.40;;;3.83;;
53269;SDS011;39159;45.634;9.420;2024-03-06T01:12:22;6.43;;;4.43;;
53269;SDS011;39159;45.634;9.420;2024-03-06T01:14:48;7.10;;;3.88;;
53269;SDS011;39159;45.634;9.420;2024-03-06T01:17:13;7.22;;;4.03;;
53269;SDS011;39159;45.634;9.420;2024-03-06T01:19:38;5.78;;;3.92;;
53269;SDS011;39159;45.634;9.420;2024-03-06T01:22:04;5.75;;;3.55;;
53269;SDS011;39159;45.634;9.420;2024-03-06T01:24:29;6.10;;;4.00;;
53269;SDS011;39159;45.634;9.420;2024-03-06T01:26:54;5.90;;;4.25;;
53269;SDS011;39159;45.634;9.420;2024-03-06T01:29:20;6.30;;;3.88;;
53269;SDS011;39159;45.634;9.420;2024-03-06T01:31:45;6.25;;;4.38;;
53269;SDS011;39159;45.634;9.420;2024-03-06T01:34:11;7.20;;;4.03;;
53269;SDS011;39159;45.634;9.420;2024-03-06T01:36:37;7.47;;;4.55;;
53269;SDS011;39159;45.634;9.420;2024-03-06T01:39:02;7.07;;;3.80;;
53269;SDS011;39159;45.634;9.420;2024-03-06T01:41:28;7.43;;;4.65;;
53269;SDS011;39159;45.634;9.420;2024-03-06T01:43:53;6.53;;;4.25;;
53269;SDS011;39159;45.634;9.420;2024-03-06T01:46:19;5.43;;;3.90;;
53269;SDS011;39159;45.634;9.420;2024-03-06T01:48:44;3.97;;;3.03;;
53269;SDS011;39159;45.634;9.420;2024-03-06T01:51:10;6.03;;;4.40;;
53269;SDS011;39159;45.634;9.420;2024-03-06T01:53:37;3.97;;;3.33;;
53269;SDS011;39159;45.634;9.420;2024-03-06T01:56:03;4.78;;;3.72;;
53269;SDS011;39159;45.634;9.420;2024-03-06T01:58:30;4.32;;;3.30;;
53269;SDS011;39159;45.634;9.420;2024-03-06T02:00:58;6.25;;;4.05;;
53269;SDS011;39159;45.634;9.420;2024-03-06T02:03:24;4.57;;;3.50;;
53269;SDS011;39159;45.634;9.420;2024-03-06T02:05:50;5.50;;;3.92;;
53269;SDS011;39159;45.634;9.420;2024-03-06T02:08:16;5.35;;;3.47;;
53269;SDS011;39159;45.634;9.420;2024-03-06T02:10:43;5.75;;;3.65;;
53269;SDS011;39159;45.634;9.420;2024-03-06T02:13:09;7.90;;;3.78;;
53269;SDS011;39159;45.634;9.420;2024-03-06T02:15:35;4.78;;;3.33;;
53269;SDS011;39159;45.634;9.420;2024-03-06T02:18:04;5.85;;;3.97;;
53269;SDS011;39159;45.634;9.420;2024-03-06T02:20:30;5.43;;;3.63;;
53269;SDS011;39159;45.634;9.420;2024-03-06T02:22:55;4.97;;;3.90;;
53269;SDS011;39159;45.634;9.420;2024-03-06T02:25:21;7.00;;;4.68;;
53269;SDS011;39159;45.634;9.420;2024-03-06T02:27:46;8.20;;;4.45;;
53269;SDS011;39159;45.634;9.420;2024-03-06T02:30:13;7.25;;;4.55;;
53269;SDS011;39159;45.634;9.420;2024-03-06T02:32:38;6.40;;;4.40;;
53269;SDS011;39159;45.634;9.420;2024-03-06T02:35:04;7.10;;;5.82;;
53269;SDS011;39159;45.634;9.420;2024-03-06T02:37:33;8.38;;;6.05;;
53269;SDS011;39159;45.634;9.420;2024-03-06T02:39:59;9.57;;;6.07;;
53269;SDS011;39159;45.634;9.420;2024-03-06T02:42:24;8.82;;;6.68;;
53269;SDS011;39159;45.634;9.420;2024-03-06T02:44:49;7.95;;;5.53;;
53269;SDS011;39159;45.634;9.420;2024-03-06T02:47:15;8.32;;;5.55;;
53269;SDS011;39159;45.634;9.420;2024-03-06T02:49:40;7.50;;;5.13;;
53269;SDS011;39159;45.634;9.420;2024-03-06T02:52:06;3.42;;;2.65;;
53269;SDS011;39159;45.634;9.420;2024-03-06T02:54:31;3.80;;;2.65;;
53269;SDS011;39159;45.634;9.420;2024-03-06T02:56:56;1.77;;;1.23;;
53269;SDS011;39159;45.634;9.420;2024-03-06T02:59:22;3.60;;;1.50;;
53269;SDS011;39159;45.634;9.420;2024-03-06T03:01:48;4.63;;;1.73;;
53269;SDS011;39159;45.634;9.420;2024-03-06T03:04:14;3.35;;;1.95;;
53269;SDS011;39159;45.634;9.420;2024-03-06T03:06:39;5.00;;;2.83;;
53269;SDS011;39159;45.634;9.420;2024-03-06T03:09:04;8.35;;;3.95;;
53269;SDS011;39159;45.634;9.420;2024-03-06T03:11:30;9.50;;;5.78;;
53269;SDS011;39159;45.634;9.420;2024-03-06T03:13:57;8.77;;;5.30;;
53269;SDS011;39159;45.634;9.420;2024-03-06T03:16:22;7.60;;;3.80;;
53269;SDS011;39159;45.634;9.420;2024-03-06T03:18:47;7.05;;;3.00;;
53269;SDS011;39159;45.634;9.420;2024-03-06T03:21:13;7.60;;;2.95;;
53269;SDS011;39159;45.634;9.420;2024-03-06T03:23:39;3.78;;;2.58;;
53269;SDS011;39159;45.634;9.420;2024-03-06T03:26:07;4.30;;;2.42;;
53269;SDS011;39159;45.634;9.420;2024-03-06T03:28:37;5.15;;;2.00;;
53269;SDS011;39159;45.634;9.420;2024-03-06T03:31:03;5.35;;;1.98;;
53269;SDS011;39159;45.634;9.420;2024-03-06T03:33:29;3.60;;;2.03;;
53269;SDS011;39159;45.634;9.420;2024-03-06T03:35:54;5.35;;;1.90;;
53269;SDS011;39159;45.634;9.420;2024-03-06T03:38:20;2.78;;;1.73;;
53269;SDS011;39159;45.634;9.420;2024-03-06T03:40:45;3.28;;;1.52;;
53269;SDS011;39159;45.634;9.420;2024-03-06T03:43:10;5.13;;;1.20;;
53269;SDS011;39159;45.634;9.420;2024-03-06T03:45:36;4.75;;;1.35;;
53269;SDS011;39159;45.634;9.420;2024-03-06T03:48:02;2.75;;;1.60;;
53269;SDS011;39159;45.634;9.420;2024-03-06T03:50:28;2.28;;;1.65;;
53269;SDS011;39159;45.634;9.420;2024-03-06T03:52:54;2.75;;;1.42;;
53269;SDS011;39159;45.634;9.420;2024-03-06T03:55:20;4.78;;;2.20;;
53269;SDS011;39159;45.634;9.420;2024-03-06T03:57:45;3.33;;;2.45;;
53269;SDS011;39159;45.634;9.420;2024-03-06T04:00:10;7.78;;;2.38;;
53269;SDS011;39159;45.634;9.420;2024-03-06T04:02:37;4.20;;;2.15;;
53269;SDS011;39159;45.634;9.420;2024-03-06T04:05:03;3.53;;;2.13;;
53269;SDS011;39159;45.634;9.420;2024-03-06T04:07:29;8.00;;;2.53;;
53269;SDS011;39159;45.634;9.420;2024-03-06T04:09:55;4.78;;;2.58;;
53269;SDS011;39159;45.634;9.420;2024-03-06T04:12:20;4.65;;;2.85;;
53269;SDS011;39159;45.634;9.420;2024-03-06T04:14:45;4.85;;;3.38;;
53269;SDS011;39159;45.634;9.420;2024-03-06T04:17:11;8.93;;;4.32;;
53269;SDS011;39159;45.634;9.420;2024-03-06T04:19:36;10.48;;;4.72;;
53269;SDS011;39159;45.634;9.420;2024-03-06T04:22:01;7.18;;;3.88;;
53269;SDS011;39159;45.634;9.420;2024-03-06T04:24:27;6.85;;;4.38;;
53269;SDS011;39159;45.634;9.420;2024-03-06T04:26:52;4.10;;;2.40;;
53269;SDS011;39159;45.634;9.420;2024-03-06T04:29:18;3.28;;;2.08;;
53269;SDS011;39159;45.634;9.420;2024-03-06T04:31:43;3.00;;;1.48;;
53269;SDS011;39159;45.634;9.420;2024-03-06T04:34:08;3.13;;;1.48;;
53269;SDS011;39159;45.634;9.420;2024-03-06T04:36:34;2.10;;;1.10;;
53269;SDS011;39159;45.634;9.420;2024-03-06T04:38:59;1.88;;;1.50;;
53269;SDS011;39159;45.634;9.420;2024-03-06T04:41:24;3.92;;;1.80;;
53269;SDS011;39159;45.634;9.420;2024-03-06T04:43:50;3.65;;;1.10;;
53269;SDS011;39159;45.634;9.420;2024-03-06T04:46:17;2.45;;;1.27;;
53269;SDS011;39159;45.634;9.420;2024-03-06T04:48:42;2.10;;;1.02;;
53269;SDS011;39159;45.634;9.420;2024-03-06T04:51:07;1.98;;;1.20;;
53269;SDS011;39159;45.634;9.420;2024-03-06T04:53:34;7.72;;;2.25;;
53269;SDS011;39159;45.634;9.420;2024-03-06T04:56:00;5.28;;;2.53;;
53269;SDS011;39159;45.634;9.420;2024-03-06T04:58:25;11.35;;;4.63;;
53269;SDS011;39159;45.634;9.420;2024-03-06T05:00:51;6.50;;;4.45;;
53269;SDS011;39159;45.634;9.420;2024-03-06T05:03:16;7.32;;;4.80;;
53269;SDS011;39159;45.634;9.420;2024-03-06T05:05:42;5.70;;;4.10;;
53269;SDS011;39159;45.634;9.420;2024-03-06T05:08:07;8.63;;;3.80;;
53269;SDS011;39159;45.634;9.420;2024-03-06T05:10:32;5.35;;;3.33;;
53269;SDS011;39159;45.634;9.420;2024-03-06T05:12:58;3.75;;;1.88;;
53269;SDS011;39159;45.634;9.420;2024-03-06T05:15:24;9.02;;;2.20;;
53269;SDS011;39159;45.634;9.420;2024-03-06T05:17:49;2.05;;;1.35;;
53269;SDS011;39159;45.634;9.420;2024-03-06T05:20:14;3.75;;;1.38;;
53269;SDS011;39159;45.634;9.420;2024-03-06T05:22:41;3.00;;;1.00;;
53269;SDS011;39159;45.634;9.420;2024-03-06T05:25:06;1.75;;;1.30;;
53269;SDS011;39159;45.634;9.420;2024-03-06T05:27:32;1.55;;;1.40;;
53269;SDS011;39159;45.634;9.420;2024-03-06T05:29:57;2.90;;;1.15;;
53269;SDS011;39159;45.634;9.420;2024-03-06T05:32:23;2.45;;;0.80;;
53269;SDS011;39159;45.634;9.420;2024-03-06T05:34:49;4.50;;;1.17;;
53269;SDS011;39159;45.634;9.420;2024-03-06T05:37:14;1.25;;;1.00;;
53269;SDS011;39159;45.634;9.420;2024-03-06T05:39:39;1.25;;;0.80;;
53269;SDS011;39159;45.634;9.420;2024-03-06T05:42:07;3.15;;;0.70;;
53269;SDS011;39159;45.634;9.420;2024-03-06T05:44:33;0.73;;;0.73;;
53269;SDS011;39159;45.634;9.420;2024-03-06T05:46:59;1.85;;;0.95;;
53269;SDS011;39159;45.634;9.420;2024-03-06T05:49:26;3.63;;;1.00;;
53269;SDS011;39159;45.634;9.420;2024-03-06T05:51:51;3.00;;;0.85;;
53269;SDS011;39159;45.634;9.420;2024-03-06T05:54:17;4.50;;;1.10;;
53269;SDS011;39159;45.634;9.420;2024-03-06T05:56:44;1.98;;;0.93;;
53269;SDS011;39159;45.634;9.420;2024-03-06T05:59:09;2.25;;;1.10;;
53269;SDS011;39159;45.634;9.420;2024-03-06T06:01:34;2.58;;;0.80;;
53269;SDS011;39159;45.634;9.420;2024-03-06T06:04:00;4.72;;;1.17;;
53269;SDS011;39159;45.634;9.420;2024-03-06T06:06:26;3.55;;;0.80;;
53269;SDS011;39159;45.634;9.420;2024-03-06T06:08:52;1.73;;;0.98;;
53269;SDS011;39159;45.634;9.420;2024-03-06T06:11:17;1.73;;;0.70;;
53269;SDS011;39159;45.634;9.420;2024-03-06T06:13:43;2.60;;;0.80;;
53269;SDS011;39159;45.634;9.420;2024-03-06T06:16:08;1.63;;;0.90;;
53269;SDS011;39159;45.634;9.420;2024-03-06T06:18:33;2.03;;;1.67;;
53269;SDS011;39159;45.634;9.420;2024-03-06T06:20:59;2.40;;;1.48;;
53269;SDS011;39159;45.634;9.420;2024-03-06T06:23:24;4.40;;;3.25;;
53269;SDS011;39159;45.634;9.420;2024-03-06T06:25:50;4.90;;;3.63;;
53269;SDS011;39159;45.634;9.420;2024-03-06T06:28:16;4.18;;;3.42;;
53269;SDS011;39159;45.634;9.420;2024-03-06T06:30:41;6.18;;;3.50;;
53269;SDS011;39159;45.634;9.420;2024-03-06T06:33:07;4.70;;;3.10;;
53269;SDS011;39159;45.634;9.420;2024-03-06T06:35:33;3.35;;;2.60;;
53269;SDS011;39159;45.634;9.420;2024-03-06T06:37:59;3.95;;;2.28;;
53269;SDS011;39159;45.634;9.420;2024-03-06T06:40:25;2.58;;;1.58;;
53269;SDS011;39159;45.634;9.420;2024-03-06T06:42:50;2.58;;;1.30;;
53269;SDS011;39159;45.634;9.420;2024-03-06T06:45:16;2.30;;;1.00;;
53269;SDS011;39159;45.634;9.420;2024-03-06T06:47:42;1.38;;;0.90;;
53269;SDS011;39159;45.634;9.420;2024-03-06T06:50:08;1.55;;;1.00;;
53269;SDS011;39159;45.634;9.420;2024-03-06T06:52:34;1.77;;;1.20;;
53269;SDS011;39159;45.634;9.420;2024-03-06T06:55:00;3.42;;;2.13;;
53269;SDS011;39159;45.634;9.420;2024-03-06T06:57:25;7.30;;;4.88;;
53269;SDS011;39159;45.634;9.420;2024-03-06T06:59:51;10.90;;;7.93;;
53269;SDS011;39159;45.634;9.420;2024-03-06T07:02:17;8.20;;;5.68;;
53269;SDS011;39159;45.634;9.420;2024-03-06T07:04:42;6.88;;;4.30;;
53269;SDS011;39159;45.634;9.420;2024-03-06T07:07:07;6.68;;;4.55;;
53269;SDS011;39159;45.634;9.420;2024-03-06T07:09:33;4.97;;;2.38;;
53269;SDS011;39159;45.634;9.420;2024-03-06T07:11:59;2.40;;;1.70;;
53269;SDS011;39159;45.634;9.420;2024-03-06T07:14:24;2.40;;;2.10;;
53269;SDS011;39159;45.634;9.420;2024-03-06T07:16:49;2.58;;;2.03;;
53269;SDS011;39159;45.634;9.420;2024-03-06T07:19:15;2.80;;;1.80;;
53269;SDS011;39159;45.634;9.420;2024-03-06T07:21:41;1.90;;;1.00;;
53269;SDS011;39159;45.634;9.420;2024-03-06T07:24:07;2.35;;;1.00;;
53269;SDS011;39159;45.634;9.420;2024-03-06T07:26:32;1.15;;;0.98;;
53269;SDS011;39159;45.634;9.420;2024-03-06T07:28:58;2.17;;;0.90;;
53269;SDS011;39159;45.634;9.420;2024-03-06T07:31:24;3.15;;;1.00;;
53269;SDS011;39159;45.634;9.420;2024-03-06T07:33:50;1.02;;;0.90;;
53269;SDS011;39159;45.634;9.420;2024-03-06T07:36:15;1.67;;;1.08;;
53269;SDS011;39159;45.634;9.420;2024-03-06T07:38:41;1.45;;;1.08;;
53269;SDS011;39159;45.634;9.420;2024-03-06T07:41:07;1.70;;;1.60;;
53269;SDS011;39159;45.634;9.420;2024-03-06T07:43:32;1.30;;;1.00;;
53269;SDS011;39159;45.634;9.420;2024-03-06T07:45:58;1.13;;;1.02;;
53269;SDS011;39159;45.634;9.420;2024-03-06T07:48:23;1.08;;;0.98;;
53269;SDS011;39159;45.634;9.420;2024-03-06T07:50:49;1.52;;;1.00;;
53269;SDS011;39159;45.634;9.420;2024-03-06T07:53:14;3.92;;;1.63;;
53269;SDS011;39159;45.634;9.420;2024-03-06T07:55:41;2.72;;;1.60;;
53269;SDS011;39159;45.634;9.420;2024-03-06T07:58:06;2.20;;;1.15;;
53269;SDS011;39159;45.634;9.420;2024-03-06T08:00:33;1.15;;;1.00;;
53269;SDS011;39159;45.634;9.420;2024-03-06T08:02:59;3.42;;;2.10;;
53269;SDS011;39159;45.634;9.420;2024-03-06T08:05:25;2.95;;;1.77;;
53269;SDS011;39159;45.634;9.420;2024-03-06T08:07:51;2.92;;;2.00;;
53269;SDS011;39159;45.634;9.420;2024-03-06T08:10:17;1.98;;;1.08;;
53269;SDS011;39159;45.634;9.420;2024-03-06T08:12:44;1.42;;;0.90;;
53269;SDS011;39159;45.634;9.420;2024-03-06T08:15:10;1.48;;;1.02;;
53269;SDS011;39159;45.634;9.420;2024-03-06T08:17:40;1.63;;;1.05;;
53269;SDS011;39159;45.634;9.420;2024-03-06T08:20:07;1.38;;;0.80;;
53269;SDS011;39159;45.634;9.420;2024-03-06T08:22:34;1.40;;;1.00;;
53269;SDS011;39159;45.634;9.420;2024-03-06T08:25:09;1.88;;;1.00;;
53269;SDS011;39159;45.634;9.420;2024-03-06T08:27:37;1.92;;;1.10;;
53269;SDS011;39159;45.634;9.420;2024-03-06T08:30:04;2.03;;;1.10;;
53269;SDS011;39159;45.634;9.420;2024-03-06T08:32:31;1.55;;;0.90;;
53269;SDS011;39159;45.634;9.420;2024-03-06T08:35:05;2.65;;;0.93;;
53269;SDS011;39159;45.634;9.420;2024-03-06T08:37:36;2.25;;;1.10;;
53269;SDS011;39159;45.634;9.420;2024-03-06T08:40:05;1.23;;;0.90;;
53269;SDS011;39159;45.634;9.420;2024-03-06T08:42:32;1.15;;;0.93;;
53269;SDS011;39159;45.634;9.420;2024-03-06T08:44:58;1.40;;;0.80;;
53269;SDS011;39159;45.634;9.420;2024-03-06T08:47:23;1.98;;;0.90;;
53269;SDS011;39159;45.634;9.420;2024-03-06T08:49:48;2.80;;;1.08;;
53269;SDS011;39159;45.634;9.420;2024-03-06T08:52:14;1.55;;;0.95;;
53269;SDS011;39159;45.634;9.420;2024-03-06T08:54:40;1.30;;;0.90;;
53269;SDS011;39159;45.634;9.420;2024-03-06T08:57:06;2.22;;;1.00;;
53269;SDS011;39159;45.634;9.420;2024-03-06T08:59:33;0.98;;;0.75;;
53269;SDS011;39159;45.634;9.420;2024-03-06T09:01:59;3.63;;;0.95;;
53269;SDS011;39159;45.634;9.420;2024-03-06T09:04:38;3.60;;;1.00;;
53269;SDS011;39159;45.634;9.420;2024-03-06T09:07:03;2.67;;;0.85;;
53269;SDS011;39159;45.634;9.420;2024-03-06T09:09:29;2.38;;;0.93;;
53269;SDS011;39159;45.634;9.420;2024-03-06T09:11:54;1.70;;;1.00;;
53269;SDS011;39159;45.634;9.420;2024-03-06T09:14:20;4.78;;;1.30;;
53269;SDS011;39159;45.634;9.420;2024-03-06T09:16:45;4.30;;;1.70;;
53269;SDS011;39159;45.634;9.420;2024-03-06T09:19:11;1.73;;;1.23;;
53269;SDS011;39159;45.634;9.420;2024-03-06T09:21:36;3.95;;;1.98;;
53269;SDS011;39159;45.634;9.420;2024-03-06T09:24:02;2.75;;;2.17;;
53269;SDS011;39159;45.634;9.420;2024-03-06T09:26:27;3.92;;;2.20;;
53269;SDS011;39159;45.634;9.420;2024-03-06T09:28:52;4.82;;;2.22;;
53269;SDS011;39159;45.634;9.420;2024-03-06T09:31:18;4.28;;;2.17;;
53269;SDS011;39159;45.634;9.420;2024-03-06T09:33:43;3.50;;;2.17;;
53269;SDS011;39159;45.634;9.420;2024-03-06T09:36:11;2.97;;;1.45;;
53269;SDS011;39159;45.634;9.420;2024-03-06T09:38:38;3.15;;;1.20;;
53269;SDS011;39159;45.634;9.420;2024-03-06T09:41:05;0.80;;;0.80;;
53269;SDS011;39159;45.634;9.420;2024-03-06T09:43:32;0.85;;;0.75;;
53269;SDS011;39159;45.634;9.420;2024-03-06T09:45:57;1.83;;;0.90;;
53269;SDS011;39159;45.634;9.420;2024-03-06T09:48:23;2.35;;;0.80;;
53269;SDS011;39159;45.634;9.420;2024-03-06T09:50:48;1.77;;;0.90;;
53269;SDS011;39159;45.634;9.420;2024-03-06T09:53:15;1.08;;;0.98;;
53269;SDS011;39159;45.634;9.420;2024-03-06T09:55:42;1.55;;;0.90;;
53269;SDS011;39159;45.634;9.420;2024-03-06T09:58:07;2.65;;;1.10;;
53269;SDS011;39159;45.634;9.420;2024-03-06T10:00:34;1.70;;;1.00;;
53269;SDS011;39159;45.634;9.420;2024-03-06T10:03:01;1.13;;;1.00;;
53269;SDS011;39159;45.634;9.420;2024-03-06T10:05:30;1.80;;;1.00;;
53269;SDS011;39159;45.634;9.420;2024-03-06T10:07:58;2.92;;;1.33;;
53269;SDS011;39159;45.634;9.420;2024-03-06T10:10:24;5.78;;;1.45;;
53269;SDS011;39159;45.634;9.420;2024-03-06T10:12:50;3.63;;;1.30;;
53269;SDS011;39159;45.634;9.420;2024-03-06T10:15:15;2.03;;;1.52;;
53269;SDS011;39159;45.634;9.420;2024-03-06T10:17:41;3.58;;;1.75;;
53269;SDS011;39159;45.634;9.420;2024-03-06T10:20:28;3.85;;;1.85;;
53269;SDS011;39159;45.634;9.420;2024-03-06T10:22:53;3.13;;;2.13;;
53269;SDS011;39159;45.634;9.420;2024-03-06T10:25:19;4.97;;;2.13;;
53269;SDS011;39159;45.634;9.420;2024-03-06T10:27:46;3.53;;;1.98;;
53269;SDS011;39159;45.634;9.420;2024-03-06T10:30:25;3.03;;;2.17;;
53269;SDS011;39159;45.634;9.420;2024-03-06T10:32:50;3.97;;;2.42;;
53269;SDS011;39159;45.634;9.420;2024-03-06T10:35:18;6.13;;;3.10;;
53269;SDS011;39159;45.634;9.420;2024-03-06T10:37:45;6.78;;;3.53;;
53269;SDS011;39159;45.634;9.420;2024-03-06T10:40:11;8.32;;;3.80;;
53269;SDS011;39159;45.634;9.420;2024-03-06T10:42:39;6.55;;;3.65;;
53269;SDS011;39159;45.634;9.420;2024-03-06T10:45:07;6.82;;;4.43;;
53269;SDS011;39159;45.634;9.420;2024-03-06T10:47:35;10.00;;;4.38;;
53269;SDS011;39159;45.634;9.420;2024-03-06T10:50:02;11.23;;;4.20;;
53269;SDS011;39159;45.634;9.420;2024-03-06T10:52:30;8.52;;;4.40;;
53269;SDS011;39159;45.634;9.420;2024-03-06T10:54:58;12.02;;;4.15;;
53269;SDS011;39159;45.634;9.420;2024-03-06T10:57:25;10.63;;;4.30;;
53269;SDS011;39159;45.634;9.420;2024-03-06T10:59:50;9.48;;;4.53;;
53269;SDS011;39159;45.634;9.420;2024-03-06T11:02:17;8.55;;;4.68;;
53269;SDS011;39159;45.634;9.420;2024-03-06T11:04:44;8.45;;;5.25;;
53269;SDS011;39159;45.634;9.420;2024-03-06T11:07:09;8.73;;;4.53;;
53269;SDS011;39159;45.634;9.420;2024-03-06T11:09:35;8.15;;;5.00;;
53269;SDS011;39159;45.634;9.420;2024-03-06T11:12:05;10.63;;;4.57;;
53269;SDS011;39159;45.634;9.420;2024-03-06T11:14:37;8.80;;;4.57;;
53269;SDS011;39159;45.634;9.420;2024-03-06T11:17:04;9.10;;;5.28;;
53269;SDS011;39159;45.634;9.420;2024-03-06T11:19:33;6.90;;;5.00;;
53269;SDS011;39159;45.634;9.420;2024-03-06T11:23:31;9.70;;;5.25;;
53269;SDS011;39159;45.634;9.420;2024-03-06T11:28:19;9.52;;;4.00;;
53269;SDS011;39159;45.634;9.420;2024-03-06T11:30:46;2.60;;;2.10;;
53269;SDS011;39159;45.634;9.420;2024-03-06T11:33:21;2.33;;;1.60;;
53269;SDS011;39159;45.634;9.420;2024-03-06T11:41:27;4.07;;;2.40;;
53269;SDS011;39159;45.634;9.420;2024-03-06T11:43:54;6.72;;;2.88;;
53269;SDS011;39159;45.634;9.420;2024-03-06T11:46:26;10.05;;;3.28;;
53269;SDS011;39159;45.634;9.420;2024-03-06T11:49:18;6.07;;;2.67;;
53269;SDS011;39159;45.634;9.420;2024-03-06T11:51:50;6.20;;;2.87;;
53269;SDS011;39159;45.634;9.420;2024-03-06T11:54:16;8.32;;;2.95;;
53269;SDS011;39159;45.634;9.420;2024-03-06T11:56:49;2.75;;;2.05;;
53269;SDS011;39159;45.634;9.420;2024-03-06T11:59:16;2.50;;;1.90;;
53269;SDS011;39159;45.634;9.420;2024-03-06T12:01:42;2.55;;;1.70;;
53269;SDS011;39159;45.634;9.420;2024-03-06T12:04:07;2.97;;;1.60;;
53269;SDS011;39159;45.634;9.420;2024-03-06T12:06:33;2.45;;;1.80;;
53269;SDS011;39159;45.634;9.420;2024-03-06T12:08:59;3.75;;;1.90;;
53269;SDS011;39159;45.634;9.420;2024-03-06T12:11:25;2.35;;;1.30;;
53269;SDS011;39159;45.634;9.420;2024-03-06T12:13:53;2.17;;;1.20;;
53269;SDS011;39159;45.634;9.420;2024-03-06T12:16:20;2.28;;;1.08;;
53269;SDS011;39159;45.634;9.420;2024-03-06T12:18:46;1.48;;;1.02;;
53269;SDS011;39159;45.634;9.420;2024-03-06T12:21:11;2.47;;;0.80;;
53269;SDS011;39159;45.634;9.420;2024-03-06T12:23:38;1.73;;;1.27;;
53269;SDS011;39159;45.634;9.420;2024-03-06T12:26:04;1.98;;;1.20;;
53269;SDS011;39159;45.634;9.420;2024-03-06T12:28:37;2.33;;;1.42;;
53269;SDS011;39159;45.634;9.420;2024-03-06T12:31:03;1.73;;;1.25;;
53269;SDS011;39159;45.634;9.420;2024-03-06T12:33:29;1.38;;;1.08;;
53269;SDS011;39159;45.634;9.420;2024-03-06T12:36:04;3.28;;;1.38;;
53269;SDS011;39159;45.634;9.420;2024-03-06T12:38:32;2.17;;;1.40;;
53269;SDS011;39159;45.634;9.420;2024-03-06T12:40:58;2.15;;;1.20;;
53269;SDS011;39159;45.634;9.420;2024-03-06T12:43:27;1.55;;;1.20;;
53269;SDS011;39159;45.634;9.420;2024-03-06T12:45:56;2.08;;;1.63;;
53269;SDS011;39159;45.634;9.420;2024-03-06T12:48:22;1.60;;;1.38;;
53269;SDS011;39159;45.634;9.420;2024-03-06T12:50:49;4.15;;;2.03;;
53269;SDS011;39159;45.634;9.420;2024-03-06T12:53:20;2.42;;;1.73;;
53269;SDS011;39159;45.634;9.420;2024-03-06T12:55:46;1.55;;;1.27;;
53269;SDS011;39159;45.634;9.420;2024-03-06T12:58:12;2.70;;;2.30;;
53269;SDS011;39159;45.634;9.420;2024-03-06T13:00:38;3.17;;;1.67;;
53269;SDS011;39159;45.634;9.420;2024-03-06T13:03:04;3.60;;;2.10;;
53269;SDS011;39159;45.634;9.420;2024-03-06T13:05:30;2.08;;;1.20;;
53269;SDS011;39159;45.634;9.420;2024-03-06T13:07:56;2.10;;;1.50;;
53269;SDS011;39159;45.634;9.420;2024-03-06T13:10:22;2.65;;;1.50;;
53269;SDS011;39159;45.634;9.420;2024-03-06T13:12:47;5.25;;;1.60;;
53269;SDS011;39159;45.634;9.420;2024-03-06T13:15:13;2.35;;;1.15;;
53269;SDS011;39159;45.634;9.420;2024-03-06T13:17:38;1.83;;;1.10;;
53269;SDS011;39159;45.634;9.420;2024-03-06T13:20:05;2.35;;;1.20;;
53269;SDS011;39159;45.634;9.420;2024-03-06T13:22:34;3.75;;;2.20;;
53269;SDS011;39159;45.634;9.420;2024-03-06T13:24:59;4.72;;;2.63;;
53269;SDS011;39159;45.634;9.420;2024-03-06T13:27:25;2.15;;;1.80;;
53269;SDS011;39159;45.634;9.420;2024-03-06T13:29:50;1.95;;;1.63;;
53269;SDS011;39159;45.634;9.420;2024-03-06T13:32:16;2.97;;;2.30;;
53269;SDS011;39159;45.634;9.420;2024-03-06T13:34:42;3.08;;;1.92;;
53269;SDS011;39159;45.634;9.420;2024-03-06T13:37:08;11.70;;;5.80;;
53269;SDS011;39159;45.634;9.420;2024-03-06T13:39:35;4.75;;;3.13;;
53269;SDS011;39159;45.634;9.420;2024-03-06T13:42:01;5.57;;;4.18;;
53269;SDS011;39159;45.634;9.420;2024-03-06T13:44:26;3.15;;;2.22;;
53269;SDS011;39159;45.634;9.420;2024-03-06T13:46:51;4.07;;;2.30;;
53269;SDS011;39159;45.634;9.420;2024-03-06T13:49:36;4.15;;;2.22;;
53269;SDS011;39159;45.634;9.420;2024-03-06T13:52:04;4.28;;;1.85;;
53269;SDS011;39159;45.634;9.420;2024-03-06T13:54:35;2.70;;;2.03;;
53269;SDS011;39159;45.634;9.420;2024-03-06T13:57:04;2.80;;;1.80;;
53269;SDS011;39159;45.634;9.420;2024-03-06T13:59:33;2.80;;;2.05;;
53269;SDS011;39159;45.634;9.420;2024-03-06T14:01:59;4.20;;;1.70;;
53269;SDS011;39159;45.634;9.420;2024-03-06T14:04:24;3.72;;;1.85;;
53269;SDS011;39159;45.634;9.420;2024-03-06T14:06:50;2.90;;;1.75;;
53269;SDS011;39159;45.634;9.420;2024-03-06T14:09:16;2.08;;;1.55;;
53269;SDS011;39159;45.634;9.420;2024-03-06T14:11:42;2.40;;;1.60;;
53269;SDS011;39159;45.634;9.420;2024-03-06T14:14:08;2.20;;;1.70;;
53269;SDS011;39159;45.634;9.420;2024-03-06T14:16:36;2.47;;;2.10;;
53269;SDS011;39159;45.634;9.420;2024-03-06T14:19:05;2.17;;;1.65;;
53269;SDS011;39159;45.634;9.420;2024-03-06T14:21:30;3.33;;;2.40;;
53269;SDS011;39159;45.634;9.420;2024-03-06T14:23:57;4.82;;;2.30;;
53269;SDS011;39159;45.634;9.420;2024-03-06T14:26:23;2.65;;;2.08;;
53269;SDS011;39159;45.634;9.420;2024-03-06T14:28:48;2.50;;;1.80;;
53269;SDS011;39159;45.634;9.420;2024-03-06T14:31:14;3.45;;;2.13;;
53269;SDS011;39159;45.634;9.420;2024-03-06T14:33:40;3.60;;;2.10;;
53269;SDS011;39159;45.634;9.420;2024-03-06T14:36:06;2.92;;;2.10;;
53269;SDS011;39159;45.634;9.420;2024-03-06T14:38:31;4.97;;;2.10;;
53269;SDS011;39159;45.634;9.420;2024-03-06T14:40:57;3.33;;;2.20;;
53269;SDS011;39159;45.634;9.420;2024-03-06T14:43:23;5.63;;;1.88;;
53269;SDS011;39159;45.634;9.420;2024-03-06T14:45:49;2.75;;;1.35;;
53269;SDS011;39159;45.634;9.420;2024-03-06T14:48:14;4.47;;;2.13;;
53269;SDS011;39159;45.634;9.420;2024-03-06T14:50:40;3.45;;;2.05;;
53269;SDS011;39159;45.634;9.420;2024-03-06T14:53:05;3.55;;;1.67;;